createdAt,value
2022-12-09T00:01:59.319Z,3.89
2022-12-09T00:04:29.888Z,3.77
2022-12-09T00:07:00.490Z,3.88
2022-12-09T00:09:30.818Z,3.83
2022-12-09T00:12:01.009Z,3.80
2022-12-09T00:14:31.953Z,3.87
2022-12-09T00:17:05.484Z,3.88
2022-12-09T00:19:35.904Z,3.93
2022-12-09T00:22:06.190Z,3.77
2022-12-09T00:24:36.490Z,3.90
2022-12-09T00:27:07.385Z,3.83
2022-12-09T00:29:38.027Z,3.84
2022-12-09T00:32:11.349Z,3.95
2022-12-09T00:34:42.428Z,4.05
2022-12-09T00:37:12.821Z,4.10
2022-12-09T00:39:43.966Z,4.13
2022-12-09T00:42:14.456Z,4.09
2022-12-09T00:44:44.847Z,4.11
2022-12-09T00:47:18.098Z,4.18
2022-12-09T00:49:48.936Z,4.23
2022-12-09T00:52:19.233Z,4.17
2022-12-09T00:54:50.071Z,4.28
2022-12-09T00:57:20.819Z,4.31
2022-12-09T00:59:51.305Z,4.33
2022-12-09T01:02:24.608Z,4.25
2022-12-09T01:04:55.205Z,4.23
2022-12-09T01:07:25.689Z,4.10
2022-12-09T01:09:56.325Z,4.16
2022-12-09T01:12:26.773Z,4.34
2022-12-09T01:14:57.278Z,4.36
2022-12-09T01:17:30.527Z,4.26
2022-12-09T01:20:00.879Z,4.25
2022-12-09T01:22:32.241Z,4.28
2022-12-09T01:25:03.071Z,4.27
2022-12-09T01:27:34.425Z,4.20
2022-12-09T01:30:05.282Z,4.14
2022-12-09T01:32:38.544Z,4.12
2022-12-09T01:35:10.018Z,4.18
2022-12-09T01:37:41.077Z,4.04
2022-12-09T01:40:20.820Z,4.09
2022-12-09T01:42:53.508Z,4.15
2022-12-09T01:45:45.227Z,4.12
2022-12-09T01:48:20.948Z,4.09
2022-12-09T01:50:56.898Z,4.15
2022-12-09T01:53:29.761Z,4.06
2022-12-09T01:56:04.332Z,4.04
2022-12-09T01:58:35.700Z,4.10
2022-12-09T02:01:06.147Z,4.16
2022-12-09T02:03:39.868Z,4.20
2022-12-09T02:06:11.436Z,4.23
2022-12-09T02:08:43.207Z,4.28
2022-12-09T02:11:24.274Z,4.20
2022-12-09T02:14:03.369Z,4.22
2022-12-09T02:16:40.136Z,4.22
2022-12-09T02:19:29.098Z,4.27
2022-12-09T02:22:02.423Z,4.33
2022-12-09T02:24:45.584Z,4.36
2022-12-09T02:27:22.982Z,4.39
2022-12-09T02:30:09.539Z,4.40
2022-12-09T02:33:12.063Z,4.45
2022-12-09T02:35:51.106Z,4.46
2022-12-09T02:38:26.813Z,4.50
2022-12-09T02:41:03.470Z,4.52
2022-12-09T02:43:42.088Z,4.56
2022-12-09T02:46:18.262Z,4.57
2022-12-09T02:48:56.074Z,4.62
2022-12-09T02:51:34.600Z,4.52
2022-12-09T02:54:11.494Z,4.50
2022-12-09T02:56:46.757Z,4.56
2022-12-09T02:59:17.647Z,4.58
2022-12-09T03:02:00.142Z,4.59
2022-12-09T03:04:33.063Z,4.62
2022-12-09T03:07:18.191Z,4.61
2022-12-09T03:09:51.188Z,4.64
2022-12-09T03:12:23.601Z,4.65
2022-12-09T03:14:56.259Z,4.67
2022-12-09T03:17:34.161Z,4.60
2022-12-09T03:20:11.390Z,4.60
2022-12-09T03:22:49.197Z,4.62
2022-12-09T03:25:25.616Z,4.70
2022-12-09T03:28:04.677Z,4.71
2022-12-09T03:30:39.151Z,4.73
2022-12-09T03:33:11.597Z,4.70
2022-12-09T03:35:46.340Z,4.64
2022-12-09T03:38:22.815Z,4.61
2022-12-09T03:40:58.138Z,4.53
2022-12-09T03:43:33.537Z,4.60
2022-12-09T03:46:04.593Z,4.63
2022-12-09T03:48:35.891Z,4.65
2022-12-09T03:51:11.141Z,4.70
2022-12-09T03:53:49.236Z,4.69
2022-12-09T03:56:25.206Z,4.73
2022-12-09T03:58:58.470Z,4.74
2022-12-09T04:01:31.197Z,4.74
2022-12-09T04:04:01.692Z,4.75
2022-12-09T04:06:32.252Z,4.73
2022-12-09T04:09:05.950Z,4.75
2022-12-09T04:11:37.335Z,4.73
2022-12-09T04:14:13.747Z,4.73
2022-12-09T04:16:46.107Z,4.75
2022-12-09T04:19:16.732Z,4.69
2022-12-09T04:21:47.285Z,4.67
2022-12-09T04:24:20.351Z,4.66
2022-12-09T04:26:50.806Z,4.69
2022-12-09T04:29:21.235Z,4.68
2022-12-09T04:31:51.508Z,4.61
2022-12-09T04:34:22.050Z,4.66
2022-12-09T04:36:52.991Z,4.57
2022-12-09T04:39:26.584Z,4.59
2022-12-09T04:41:56.891Z,4.56
2022-12-09T04:44:27.375Z,4.54
2022-12-09T04:46:57.862Z,4.42
2022-12-09T04:49:28.312Z,4.38
2022-12-09T04:51:58.824Z,4.30
2022-12-09T04:54:33.155Z,4.32
2022-12-09T04:57:03.815Z,4.31
2022-12-09T04:59:34.896Z,4.30
2022-12-09T05:02:05.669Z,4.30
2022-12-09T05:04:36.728Z,4.28
2022-12-09T05:07:07.744Z,4.21
2022-12-09T05:09:41.156Z,4.20
2022-12-09T05:12:12.029Z,4.20
2022-12-09T05:14:42.751Z,4.21
2022-12-09T05:17:13.176Z,4.23
2022-12-09T05:19:44.788Z,4.23
2022-12-09T05:22:15.473Z,4.25
2022-12-09T05:24:49.186Z,4.24
2022-12-09T05:27:19.728Z,4.22
2022-12-09T05:29:50.543Z,4.22
2022-12-09T05:32:21.657Z,4.22
2022-12-09T05:34:52.248Z,4.22
2022-12-09T05:37:22.944Z,4.21
2022-12-09T05:39:55.980Z,4.22
2022-12-09T05:42:26.414Z,4.26
2022-12-09T05:44:57.005Z,4.29
2022-12-09T05:47:27.789Z,4.35
2022-12-09T05:50:01.753Z,4.35
2022-12-09T05:52:39.140Z,4.37
2022-12-09T05:55:14.192Z,4.35
2022-12-09T05:57:44.804Z,4.35
2022-12-09T06:00:17.667Z,4.34
2022-12-09T06:02:48.670Z,4.34
2022-12-09T06:05:19.443Z,4.38
2022-12-09T06:07:50.611Z,4.41
2022-12-09T06:10:24.076Z,4.41
2022-12-09T06:12:57.781Z,4.38
2022-12-09T06:15:33.142Z,4.39
2022-12-09T06:18:04.861Z,4.39
2022-12-09T06:20:35.354Z,4.39
2022-12-09T06:23:05.994Z,4.38
2022-12-09T06:25:39.863Z,4.36
2022-12-09T06:28:10.550Z,4.38
2022-12-09T06:30:41.371Z,4.38
2022-12-09T06:33:29.429Z,4.42
2022-12-09T06:36:04.716Z,4.42
2022-12-09T06:38:35.258Z,4.44
2022-12-09T06:41:12.361Z,4.47
2022-12-09T06:43:44.027Z,4.48
2022-12-09T06:46:16.677Z,4.50
2022-12-09T06:48:48.101Z,4.46
2022-12-09T06:51:19.684Z,4.43
2022-12-09T06:53:50.767Z,4.39
2022-12-09T06:56:24.014Z,4.34
2022-12-09T06:58:54.827Z,4.32
2022-12-09T07:01:27.703Z,4.29
2022-12-09T07:04:00.128Z,4.29
2022-12-09T07:06:33.735Z,4.22
2022-12-09T07:09:07.274Z,4.16
2022-12-09T07:11:42.606Z,4.13
2022-12-09T07:14:14.108Z,4.12
2022-12-09T07:16:45.594Z,4.10
2022-12-09T07:19:20.636Z,4.12
2022-12-09T07:21:52.431Z,4.15
2022-12-09T07:24:23.212Z,4.21
2022-12-09T07:26:56.307Z,4.20
2022-12-09T07:29:26.623Z,4.23
2022-12-09T07:31:57.819Z,4.23
2022-12-09T07:34:28.519Z,4.20
2022-12-09T07:36:59.818Z,4.12
2022-12-09T07:39:30.543Z,4.11
2022-12-09T07:42:03.843Z,4.16
2022-12-09T07:44:35.025Z,4.21
2022-12-09T07:47:05.626Z,4.23
2022-12-09T07:49:36.542Z,4.26
2022-12-09T07:52:07.721Z,4.25
2022-12-09T07:54:38.362Z,4.26
2022-12-09T07:57:11.411Z,4.28
2022-12-09T07:59:42.177Z,4.33
2022-12-09T08:02:13.059Z,4.34
2022-12-09T08:04:44.094Z,4.40
2022-12-09T08:07:14.712Z,4.44
2022-12-09T08:09:45.652Z,4.44
2022-12-09T08:12:19.026Z,4.43
2022-12-09T08:14:49.471Z,4.50
2022-12-09T08:17:21.387Z,4.57
2022-12-09T08:19:52.432Z,4.58
2022-12-09T08:22:23.659Z,4.65
2022-12-09T08:24:54.512Z,4.72
2022-12-09T08:27:27.606Z,4.86
2022-12-09T08:29:58.696Z,4.96
2022-12-09T08:32:29.938Z,4.97
2022-12-09T08:35:00.865Z,4.91
2022-12-09T08:37:31.603Z,4.86
2022-12-09T08:40:02.191Z,4.85
2022-12-09T08:42:35.955Z,4.89
2022-12-09T08:45:07.933Z,4.97
2022-12-09T08:47:38.764Z,5.06
2022-12-09T08:50:11.780Z,5.12
2022-12-09T08:52:42.998Z,5.15
2022-12-09T08:55:13.968Z,5.10
2022-12-09T08:57:47.082Z,5.09
2022-12-09T09:00:19.685Z,5.04
2022-12-09T09:02:50.146Z,5.01
2022-12-09T09:05:21.033Z,5.07
2022-12-09T09:07:52.303Z,5.07
2022-12-09T09:10:22.703Z,5.08
2022-12-09T09:12:56.210Z,5.12
2022-12-09T09:15:27.029Z,5.19
2022-12-09T09:17:58.114Z,5.19
2022-12-09T09:20:28.878Z,5.25
2022-12-09T09:23:03.032Z,5.27
2022-12-09T09:25:35.139Z,5.26
2022-12-09T09:28:08.714Z,5.36
2022-12-09T09:30:40.394Z,5.59
2022-12-09T09:33:12.248Z,5.81
2022-12-09T09:35:43.042Z,5.89
2022-12-09T09:38:13.885Z,6.12
2022-12-09T09:40:45.134Z,6.49
2022-12-09T09:43:23.077Z,6.85
2022-12-09T09:45:55.222Z,7.10
2022-12-09T09:48:30.372Z,7.33
2022-12-09T09:51:06.757Z,7.41
2022-12-09T09:53:40.477Z,7.45
2022-12-09T09:56:30.004Z,7.43
2022-12-09T09:59:19.543Z,7.52
2022-12-09T10:02:05.778Z,7.62
2022-12-09T10:04:52.969Z,7.57
2022-12-09T10:07:32.318Z,8.07
2022-12-09T10:10:19.183Z,8.24
2022-12-09T10:13:14.289Z,8.81
2022-12-09T10:16:12.269Z,9.35
2022-12-09T10:18:52.783Z,9.22
2022-12-09T10:21:25.145Z,8.96
2022-12-09T10:23:57.853Z,8.82
2022-12-09T10:26:32.693Z,8.61
2022-12-09T10:29:16.811Z,8.46
2022-12-09T10:31:49.996Z,8.10
2022-12-09T10:34:20.499Z,7.96
2022-12-09T10:36:51.950Z,7.71
2022-12-09T10:39:24.870Z,7.37
2022-12-09T10:42:24.173Z,7.15
2022-12-09T10:45:09.385Z,7.10
2022-12-09T10:47:43.103Z,6.97
2022-12-09T10:50:34.302Z,6.95
2022-12-09T10:53:10.685Z,6.97
2022-12-09T10:55:44.848Z,6.93
2022-12-09T10:58:21.119Z,6.94
2022-12-09T11:01:12.099Z,6.89
2022-12-09T11:03:52.571Z,6.83
2022-12-09T11:06:28.612Z,6.96
2022-12-09T11:09:02.196Z,7.09
2022-12-09T11:11:46.369Z,7.20
2022-12-09T11:14:27.236Z,7.21
2022-12-09T11:17:01.222Z,7.74
2022-12-09T11:19:40.735Z,7.81
2022-12-09T11:22:33.745Z,7.53
2022-12-09T11:25:24.956Z,8.00
2022-12-09T11:27:59.086Z,8.24
2022-12-09T11:30:33.413Z,8.37
2022-12-09T11:33:11.516Z,7.92
2022-12-09T11:35:59.117Z,7.70
2022-12-09T11:38:40.620Z,7.72
2022-12-09T11:41:43.269Z,9.03
2022-12-09T11:44:27.948Z,8.45
2022-12-09T11:47:03.494Z,8.04
2022-12-09T11:49:39.782Z,7.92
2022-12-09T11:52:30.191Z,7.96
2022-12-09T11:55:15.469Z,7.95
2022-12-09T11:57:52.427Z,8.09
2022-12-09T12:00:27.500Z,8.27
2022-12-09T12:03:07.483Z,8.67
2022-12-09T12:05:42.228Z,8.74
2022-12-09T12:08:27.070Z,8.50
2022-12-09T12:11:02.978Z,8.41
2022-12-09T12:13:41.983Z,8.27
2022-12-09T12:16:16.349Z,8.41
2022-12-09T12:18:51.857Z,8.66
2022-12-09T12:21:47.336Z,9.53
2022-12-09T12:24:44.577Z,10.44
2022-12-09T12:27:29.973Z,11.31
2022-12-09T12:30:05.401Z,12.35
2022-12-09T12:33:53.114Z,13.18
2022-12-09T12:36:04.274Z,12.44
2022-12-09T12:38:52.787Z,11.18
2022-12-09T12:41:37.779Z,10.09
2022-12-09T12:44:48.080Z,9.22
2022-12-09T12:47:26.290Z,8.60
2022-12-09T12:50:16.971Z,8.20
2022-12-09T12:52:56.841Z,8.05
2022-12-09T12:55:46.649Z,7.82
2022-12-09T12:58:34.524Z,7.53
2022-12-09T13:01:11.158Z,7.42
2022-12-09T13:03:53.841Z,7.59
2022-12-09T13:06:33.268Z,7.64
2022-12-09T13:09:08.805Z,7.47
2022-12-09T13:11:52.280Z,7.44
2022-12-09T13:14:33.226Z,7.62
2022-12-09T13:17:04.900Z,7.49
2022-12-09T13:19:43.250Z,7.44
2022-12-09T13:22:23.551Z,7.25
2022-12-09T13:25:03.775Z,7.11
2022-12-09T13:27:41.401Z,7.06
2022-12-09T13:30:21.450Z,6.98
2022-12-09T13:33:25.519Z,6.91
2022-12-09T13:36:06.714Z,6.90
2022-12-09T13:38:39.974Z,6.90
2022-12-09T13:41:56.205Z,6.79
2022-12-09T13:44:34.236Z,6.58
2022-12-09T13:47:32.002Z,6.49
2022-12-09T13:50:06.224Z,6.36
2022-12-09T13:52:48.031Z,6.30
2022-12-09T13:55:35.167Z,6.33
2022-12-09T13:58:33.590Z,6.31
2022-12-09T14:01:15.716Z,6.29
2022-12-09T14:04:00.310Z,6.29
2022-12-09T14:06:35.374Z,6.26
2022-12-09T14:09:23.581Z,6.17
2022-12-09T14:11:55.551Z,6.11
2022-12-09T14:14:58.617Z,5.94
2022-12-09T14:18:04.870Z,5.79
2022-12-09T14:20:42.838Z,5.71
2022-12-09T14:23:21.347Z,5.56
2022-12-09T14:26:11.500Z,5.47
2022-12-09T14:29:03.170Z,5.40
2022-12-09T14:32:02.963Z,5.34
2022-12-09T14:34:39.413Z,5.31
2022-12-09T14:37:51.052Z,5.32
2022-12-09T14:40:52.297Z,5.29
2022-12-09T14:43:48.460Z,5.18
2022-12-09T14:46:30.033Z,5.14
2022-12-09T14:49:06.039Z,5.10
2022-12-09T14:51:39.756Z,5.08
2022-12-09T14:54:20.270Z,5.01
2022-12-09T14:56:54.677Z,5.00
2022-12-09T14:59:28.748Z,4.94
2022-12-09T15:02:03.174Z,4.88
2022-12-09T15:04:36.134Z,4.88
2022-12-09T15:07:12.353Z,4.83
2022-12-09T15:09:56.322Z,4.77
2022-12-09T15:12:33.269Z,4.75
2022-12-09T15:15:10.796Z,4.74
2022-12-09T15:17:46.124Z,4.69
2022-12-09T15:20:32.242Z,4.64
2022-12-09T15:23:06.905Z,4.60
2022-12-09T15:25:52.220Z,4.55
2022-12-09T15:31:21.112Z,4.51
2022-12-09T15:33:53.709Z,4.51
2022-12-09T15:36:28.729Z,4.51
2022-12-09T15:39:04.850Z,4.46
2022-12-09T15:41:54.332Z,4.47
2022-12-09T15:44:26.950Z,4.44
2022-12-09T15:47:04.319Z,4.40
2022-12-09T15:49:42.749Z,4.34
2022-12-09T15:52:15.077Z,4.31
2022-12-09T15:54:48.100Z,4.34
2022-12-09T15:57:23.429Z,4.35
2022-12-09T15:59:59.005Z,4.35
2022-12-09T16:02:33.695Z,4.35
2022-12-09T16:05:08.056Z,4.39
2022-12-09T16:07:38.808Z,4.39
2022-12-09T16:10:14.877Z,4.37
2022-12-09T16:12:48.024Z,4.38
2022-12-09T16:15:53.686Z,4.38
2022-12-09T16:18:28.253Z,4.36
2022-12-09T16:21:10.737Z,4.38
2022-12-09T16:23:41.108Z,4.36
2022-12-09T16:26:20.619Z,4.34
2022-12-09T16:29:02.189Z,4.35
2022-12-09T16:31:33.116Z,4.35
2022-12-09T16:34:03.766Z,4.34
2022-12-09T16:36:35.374Z,4.34
2022-12-09T16:39:38.247Z,4.32
2022-12-09T16:42:25.273Z,4.32
2022-12-09T16:45:27.081Z,4.30
2022-12-09T16:47:58.189Z,4.31
2022-12-09T16:50:34.864Z,4.29
2022-12-09T16:53:07.923Z,4.29
2022-12-09T16:55:38.307Z,4.25
2022-12-09T16:58:08.769Z,4.28
2022-12-09T17:00:41.790Z,4.31
2022-12-09T17:03:21.660Z,4.30
2022-12-09T17:05:52.005Z,4.31
2022-12-09T17:08:22.501Z,4.33
2022-12-09T17:10:52.911Z,4.34
2022-12-09T17:13:23.365Z,4.33
2022-12-09T17:15:58.643Z,4.31
2022-12-09T17:18:29.715Z,4.32
2022-12-09T17:21:04.138Z,4.31
2022-12-09T17:23:39.704Z,4.32
2022-12-09T17:26:13.272Z,4.30
2022-12-09T17:28:44.681Z,4.30
2022-12-09T17:31:22.459Z,4.29
2022-12-09T17:33:53.935Z,4.26
2022-12-09T17:36:24.249Z,4.26
2022-12-09T17:38:54.685Z,4.22
2022-12-09T17:41:25.134Z,4.24
2022-12-09T17:43:57.856Z,4.26
2022-12-09T17:46:31.136Z,4.20
2022-12-09T17:50:25.374Z,4.22
2022-12-09T17:52:55.774Z,4.22
2022-12-09T17:55:26.242Z,4.22
2022-12-09T17:57:56.649Z,4.22
2022-12-09T18:00:27.184Z,4.21
2022-12-09T18:03:00.146Z,4.19
2022-12-09T18:05:30.364Z,4.19
2022-12-09T18:08:00.774Z,4.12
2022-12-09T18:10:37.116Z,4.15
2022-12-09T18:13:08.811Z,4.18
2022-12-09T18:15:40.272Z,4.17
2022-12-09T18:18:13.230Z,4.16
2022-12-09T18:20:43.561Z,4.16
2022-12-09T18:23:14.725Z,4.08
2022-12-09T18:25:46.227Z,4.08
2022-12-09T18:28:16.584Z,4.11
2022-12-09T18:30:47.232Z,4.12
2022-12-09T18:33:20.494Z,4.13
2022-12-09T18:35:50.990Z,4.14
2022-12-09T18:38:24.260Z,4.10
2022-12-09T18:41:06.559Z,4.10
2022-12-09T18:43:41.189Z,4.11
2022-12-09T18:46:14.122Z,4.13
2022-12-09T18:48:47.403Z,4.13
2022-12-09T18:51:19.815Z,4.10
2022-12-09T18:53:51.134Z,4.07
2022-12-09T18:56:21.288Z,4.05
2022-12-09T18:59:08.735Z,4.04
2022-12-09T19:01:42.309Z,4.07
2022-12-09T19:04:19.774Z,4.07
2022-12-09T19:06:52.488Z,4.06
2022-12-09T19:09:25.108Z,4.07
2022-12-09T19:11:56.980Z,4.07
2022-12-09T19:14:27.975Z,4.11
2022-12-09T19:16:58.540Z,4.11
2022-12-09T19:19:31.909Z,4.12
2022-12-09T19:22:03.731Z,4.17
2022-12-09T19:24:41.347Z,4.24
2022-12-09T19:27:13.532Z,4.24
2022-12-09T19:29:44.018Z,4.26
2022-12-09T19:32:51.040Z,4.27
2022-12-09T19:35:09.012Z,4.32
2022-12-09T19:37:39.296Z,4.35
2022-12-09T19:40:12.765Z,4.36
2022-12-09T19:42:43.023Z,4.39
2022-12-09T19:45:14.790Z,4.43
2022-12-09T19:47:45.161Z,4.39
2022-12-09T19:50:18.172Z,4.44
2022-12-09T19:52:48.586Z,4.44
2022-12-09T19:55:19.078Z,4.45
2022-12-09T19:57:49.461Z,4.45
2022-12-09T20:00:20.571Z,4.45
2022-12-09T20:02:51.572Z,4.44
2022-12-09T20:05:24.748Z,4.48
2022-12-09T20:07:55.075Z,4.53
2022-12-09T20:10:25.395Z,4.53
2022-12-09T20:12:55.859Z,4.56
2022-12-09T20:15:26.186Z,4.55
2022-12-09T20:17:57.049Z,4.57
2022-12-09T20:20:30.023Z,4.53
2022-12-09T20:23:00.548Z,4.54
2022-12-09T20:25:31.110Z,4.59
2022-12-09T20:28:01.487Z,4.53
2022-12-09T20:30:32.967Z,4.54
2022-12-09T20:33:03.244Z,4.48
2022-12-09T20:35:39.001Z,4.49
2022-12-09T20:38:09.271Z,4.50
2022-12-09T20:40:40.920Z,4.46
2022-12-09T20:43:11.414Z,4.46
2022-12-09T20:45:42.031Z,4.42
2022-12-09T20:48:13.143Z,4.44
2022-12-09T20:50:46.131Z,4.43
2022-12-09T20:53:16.433Z,4.44
2022-12-09T20:55:46.744Z,4.45
2022-12-09T20:58:17.063Z,4.46
2022-12-09T21:00:47.389Z,4.49
2022-12-09T21:03:17.911Z,4.48
2022-12-09T21:05:50.989Z,4.50
2022-12-09T21:08:21.357Z,4.50
2022-12-09T21:10:51.918Z,4.48
2022-12-09T21:13:22.493Z,4.41
2022-12-09T21:15:53.023Z,4.43
2022-12-09T21:18:23.491Z,4.41
2022-12-09T21:20:59.068Z,4.43
2022-12-09T21:23:34.115Z,4.44
2022-12-09T21:26:08.395Z,4.47
2022-12-09T21:28:40.128Z,4.44
2022-12-09T21:31:12.137Z,4.42
2022-12-09T21:33:43.872Z,4.44
2022-12-09T21:36:18.957Z,4.36
2022-12-09T21:38:49.305Z,4.35
2022-12-09T21:41:22.639Z,4.35
2022-12-09T21:43:55.119Z,4.33
2022-12-09T21:46:27.782Z,4.32
2022-12-09T21:49:03.555Z,4.32
2022-12-09T21:51:38.047Z,4.29
2022-12-09T21:54:09.096Z,4.32
2022-12-09T21:56:39.654Z,4.30
2022-12-09T21:59:11.047Z,4.24
2022-12-09T22:01:44.281Z,4.23
2022-12-09T22:04:18.044Z,4.24
2022-12-09T22:06:53.391Z,4.22
2022-12-09T22:09:24.753Z,4.28
2022-12-09T22:11:55.053Z,4.27
2022-12-09T22:14:25.462Z,4.25
2022-12-09T22:16:55.774Z,4.25
2022-12-09T22:19:27.592Z,4.23
2022-12-09T22:22:04.588Z,4.17
2022-12-09T22:24:37.790Z,4.20
2022-12-09T22:27:08.218Z,4.25
2022-12-09T22:29:38.628Z,4.27
2022-12-09T22:32:09.208Z,4.31
2022-12-09T22:34:39.971Z,4.30
2022-12-09T22:37:41.862Z,4.34
2022-12-09T22:40:03.453Z,4.35
2022-12-09T22:42:33.795Z,4.37
2022-12-09T22:45:04.164Z,4.35
2022-12-09T22:47:34.578Z,4.35
2022-12-09T22:50:05.001Z,4.34
2022-12-09T22:52:37.954Z,4.31
2022-12-09T22:55:09.654Z,4.32
2022-12-09T22:57:39.945Z,4.31
2022-12-09T23:00:13.280Z,4.31
2022-12-09T23:02:44.189Z,4.32
2022-12-09T23:05:14.706Z,4.35
2022-12-09T23:07:47.667Z,4.31
2022-12-09T23:10:18.159Z,4.30
2022-12-09T23:12:48.452Z,4.30
2022-12-09T23:15:19.005Z,4.29
2022-12-09T23:17:49.308Z,4.27
2022-12-09T23:20:19.915Z,4.29
2022-12-09T23:22:52.871Z,4.29
2022-12-09T23:25:23.384Z,4.29
2022-12-09T23:27:53.828Z,4.32
2022-12-09T23:30:24.223Z,4.32
2022-12-09T23:32:54.492Z,4.31
2022-12-09T23:35:24.797Z,4.32
2022-12-09T23:37:57.677Z,4.31
2022-12-09T23:40:27.918Z,4.33
2022-12-09T23:42:58.234Z,4.32
2022-12-09T23:45:28.575Z,4.33
2022-12-09T23:47:58.885Z,4.33
2022-12-09T23:50:29.224Z,4.37
2022-12-09T23:53:02.097Z,4.33
2022-12-09T23:55:32.998Z,4.30
2022-12-09T23:58:03.421Z,4.29
